Malabrigo, Argentina
Current Conditions -  °F | °C
As of 4:00 PM on Tuesday 27 Jan 2015 (Local Time) from SARE Reporting Station
Scattered Clouds Scattered Clouds  
Wind Chill: 97°   Ceiling: Unl
Heat Index: 103°   Visibility: 6mi
Dew Point: 70°   Wind: 2mph
Humidity: 41%   Direction: 20°NNE
Pressure: 29.68"   Gusts: NA
Location:  29.35°S, 59.98°W
Report Text: SARE 271900Z 02002KT 9999 SCT030TCU FEW056CB SCT200 36/21 Q1005
Loading
Personal Weather Stations






























Interactive Weather Map New forecast layout! Learn more

10-Day Weather Forecast

Advertisements
Track Severe Weather on mobile